Time;durP1;ratioP1;P1;durP2;ratioP2;P2;SDS_P1;SDS_P2;PMS_P1;PMS_P2;Temp;Humidity;BMP_temperature;BMP_pressure;BME280_temperature;BME280_humidity;BME280_pressure;Samples;Min_cycle;Max_cycle;Signal;HPM_P1;HPM_P2
2022/03/03 00:01:35;;;;;;;33.83;20.65;;;;;;;4.00;46.67;95552.66;4974868;28;20034;-67
2022/03/03 00:04:01;;;;;;;32.63;20.05;;;;;;;3.89;46.86;95543.09;4974980;28;20360;-67
2022/03/03 00:06:26;;;;;;;38.15;21.73;;;;;;;4.00;46.93;95555.28;4957164;28;20073;-69
2022/03/03 00:08:52;;;;;;;35.67;20.85;;;;;;;4.11;46.70;95569.31;4974476;28;20078;-68
2022/03/03 00:11:18;;;;;;;37.15;21.40;;;;;;;4.12;46.87;95566.44;4957239;28;20034;-68
2022/03/03 00:13:43;;;;;;;37.80;21.77;;;;;;;4.10;46.97;95565.91;4974769;28;20026;-68
2022/03/03 00:16:08;;;;;;;37.92;20.85;;;;;;;4.03;47.30;95573.19;4974671;28;20380;-68
2022/03/03 00:18:34;;;;;;;42.60;23.02;;;;;;;3.99;47.31;95568.69;4974413;28;20045;-68
2022/03/03 00:20:59;;;;;;;40.08;22.00;;;;;;;3.85;46.98;95544.66;4974172;28;20023;-68
2022/03/03 00:23:24;;;;;;;39.20;20.85;;;;;;;3.82;47.24;95548.56;4956939;28;20496;-68
2022/03/03 00:25:50;;;;;;;36.90;21.15;;;;;;;3.97;47.45;95576.84;4974491;28;20073;-67
2022/03/03 00:28:16;;;;;;;35.17;21.73;;;;;;;3.72;47.08;95542.41;4956921;28;20038;-67
2022/03/03 00:30:41;;;;;;;34.88;20.92;;;;;;;3.75;47.07;95549.81;4973906;28;20445;-68
2022/03/03 00:33:06;;;;;;;33.20;21.55;;;;;;;3.74;47.39;95541.16;4973516;28;20113;-67
2022/03/03 00:35:32;;;;;;;33.85;21.55;;;;;;;3.84;47.45;95564.91;4956992;28;20023;-68
2022/03/03 00:37:57;;;;;;;32.42;20.17;;;;;;;3.71;47.31;95567.16;4973903;28;20054;-68
2022/03/03 00:40:23;;;;;;;34.30;20.27;;;;;;;3.45;48.15;95537.19;4956435;28;20023;-68
2022/03/03 00:42:48;;;;;;;35.85;20.90;;;;;;;3.31;47.61;95498.13;4974191;28;20030;-68
2022/03/03 00:45:14;;;;;;;33.33;19.88;;;;;;;3.59;47.57;95547.06;4974323;28;20069;-68
2022/03/03 00:47:39;;;;;;;40.97;22.65;;;;;;;3.34;48.15;95510.81;4974353;28;20113;-68
2022/03/03 00:50:05;;;;;;;29.38;20.30;;;;;;;3.52;47.89;95546.44;4973756;28;20395;-67
2022/03/03 00:52:30;;;;;;;42.17;20.30;;;;;;;3.55;47.58;95553.84;4973296;28;20061;-67
2022/03/03 00:54:56;;;;;;;37.90;21.42;;;;;;;3.56;47.38;95573.84;4956633;28;20034;-68
2022/03/03 00:57:21;;;;;;;34.55;21.27;;;;;;;3.55;48.47;95593.31;4974044;28;20027;-67
2022/03/03 00:59:47;;;;;;;33.95;20.27;;;;;;;3.48;48.83;95561.16;4973702;28;20392;-68
2022/03/03 01:02:12;;;;;;;40.17;21.67;;;;;;;3.61;48.41;95579.16;4956462;28;20033;-67
2022/03/03 01:04:37;;;;;;;37.78;22.98;;;;;;;3.64;48.26;95580.50;4956264;28;20042;-67
2022/03/03 01:07:03;;;;;;;42.53;21.48;;;;;;;3.50;48.26;95569.59;4973424;28;20069;-67
2022/03/03 01:09:28;;;;;;;40.13;22.08;;;;;;;3.51;48.43;95557.22;4955901;28;20101;-67
2022/03/03 01:11:55;;;;;;;37.08;20.73;;;;;;;3.55;48.55;95561.75;4956410;28;20026;-67
2022/03/03 01:14:23;;;;;;;35.80;21.35;;;;;;;3.09;48.24;95481.63;4973682;28;20026;-68
2022/03/03 01:16:51;;;;;;;39.45;23.05;;;;;;;3.37;48.42;95520.00;4973728;28;20027;-68
2022/03/03 01:19:17;;;;;;;33.67;20.90;;;;;;;3.32;48.31;95512.06;4956163;28;20133;-69
2022/03/03 01:21:43;;;;;;;36.13;21.67;;;;;;;3.56;48.19;95552.00;4955920;28;20061;-68
2022/03/03 01:24:08;;;;;;;42.53;21.33;;;;;;;3.56;47.87;95568.59;4973524;28;20065;-67
2022/03/03 01:26:34;;;;;;;37.83;22.08;;;;;;;3.26;48.25;95520.97;4973675;28;20473;-68
2022/03/03 01:28:59;;;;;;;39.15;22.15;;;;;;;3.12;48.38;95508.22;4973032;28;20045;-67
2022/03/03 01:31:25;;;;;;;40.35;22.08;;;;;;;3.54;48.69;95565.44;4973477;28;20031;-68
2022/03/03 01:33:50;;;;;;;44.40;23.17;;;;;;;3.34;48.48;95538.94;4973432;28;20062;-69
2022/03/03 01:36:16;;;;;;;36.55;21.73;;;;;;;3.41;48.55;95565.03;4955603;28;20069;-68
2022/03/03 01:38:41;;;;;;;34.25;19.73;;;;;;;3.22;48.75;95530.38;4972970;28;20033;-69
2022/03/03 01:41:08;;;;;;;36.92;21.55;;;;;;;3.35;48.31;95562.34;4955496;28;20030;-68
2022/03/03 01:43:34;;;;;;;40.00;22.10;;;;;;;3.34;48.56;95550.25;4973254;28;20027;-68
2022/03/03 01:45:59;;;;;;;38.33;21.27;;;;;;;3.18;48.30;95531.94;4955807;28;20535;-68
2022/03/03 01:48:25;;;;;;;31.20;21.27;;;;;;;3.08;48.75;95520.28;4972886;28;20110;-68
2022/03/03 01:50:52;;;;;;;40.17;20.67;;;;;;;3.19;49.21;95530.88;4972762;28;20118;-68
2022/03/03 01:53:18;;;;;;;34.00;21.77;;;;;;;3.22;48.78;95543.53;4972393;28;20113;-70
2022/03/03 01:55:43;;;;;;;33.72;21.30;;;;;;;2.73;49.07;95473.38;4972760;28;20466;-67
2022/03/03 01:58:09;;;;;;;38.33;20.20;;;;;;;2.92;48.88;95504.56;4955553;28;20043;-67
2022/03/03 02:00:35;;;;;;;39.08;21.30;;;;;;;3.03;49.14;95520.22;4972400;28;20035;-67
2022/03/03 02:03:01;;;;;;;38.83;21.30;;;;;;;3.09;49.11;95521.84;4955372;28;20038;-67
2022/03/03 02:05:27;;;;;;;38.33;21.05;;;;;;;2.82;49.28;95477.16;4972705;28;20023;-67
2022/03/03 02:07:52;;;;;;;38.85;20.38;;;;;;;2.96;49.30;95498.56;4972145;28;20030;-69
2022/03/03 02:10:18;;;;;;;42.90;20.90;;;;;;;2.84;49.26;95485.59;4972052;28;20031;-67
2022/03/03 02:12:43;;;;;;;34.47;19.70;;;;;;;2.82;49.19;95485.03;4972601;28;20173;-67
2022/03/03 02:15:19;;;;;;;34.90;20.20;;;;;;;3.00;49.47;95509.41;4972381;28;20041;-68
2022/03/03 02:17:45;;;;;;;28.20;19.15;;;;;;;3.00;49.32;95512.03;4972560;28;20077;-68
2022/03/03 02:20:25;;;;;;;36.88;19.02;;;;;;;3.00;49.68;95504.13;4972341;28;20039;-67
2022/03/03 02:22:52;;;;;;;30.85;19.13;;;;;;;2.99;49.32;95508.59;4971962;28;20118;-68
2022/03/03 02:25:18;;;;;;;32.40;19.20;;;;;;;2.72;49.18;95474.44;4972132;28;20037;-68
2022/03/03 02:27:44;;;;;;;29.52;17.70;;;;;;;2.87;49.29;95502.69;4954922;28;20027;-68
2022/03/03 02:30:12;;;;;;;29.65;17.90;;;;;;;2.72;49.37;95478.88;4954565;28;20034;-67
2022/03/03 02:32:38;;;;;;;28.10;17.85;;;;;;;2.83;49.38;95501.59;4972310;28;20034;-67
2022/03/03 02:35:05;;;;;;;30.75;17.85;;;;;;;2.71;49.28;95485.94;4972144;28;20479;-68
2022/03/03 02:37:33;;;;;;;29.20;18.27;;;;;;;2.86;49.65;95516.84;4971730;28;20034;-68
2022/03/03 02:39:58;;;;;;;20.52;16.83;;;;;;;2.56;49.28;95468.22;4971885;28;20365;-67
2022/03/03 02:42:24;;;;;;;29.00;18.00;;;;;;;2.49;49.49;95459.72;4972038;28;20042;-67
2022/03/03 02:44:49;;;;;;;30.35;17.88;;;;;;;2.60;49.72;95481.63;4971902;28;20111;-67
2022/03/03 02:47:14;;;;;;;28.67;18.20;;;;;;;2.62;49.33;95478.78;4972034;28;20023;-67
2022/03/03 02:49:40;;;;;;;28.17;18.05;;;;;;;2.75;49.36;95494.13;4971774;28;20484;-67
2022/03/03 02:52:05;;;;;;;26.02;17.25;;;;;;;2.65;49.52;95483.53;4971577;28;20038;-68
2022/03/03 02:54:31;;;;;;;29.23;17.83;;;;;;;2.53;49.23;95463.44;4981418;28;20161;-67
2022/03/03 02:59:40;;;;;;;23.85;17.25;;;;;;;2.68;49.69;95502.22;4991996;28;20096;-68
2022/03/03 03:02:05;;;;;;;30.48;16.92;;;;;;;2.56;49.92;95497.09;4991353;28;20038;-67
2022/03/03 03:04:31;;;;;;;28.35;16.02;;;;;;;2.49;49.79;95475.47;4991727;28;20041;-67
2022/03/03 03:06:56;;;;;;;26.13;17.08;;;;;;;2.50;49.79;95473.63;4988243;28;20058;-67
2022/03/03 03:09:21;;;;;;;29.25;17.45;;;;;;;2.38;49.53;95459.84;4971793;28;20035;-67
2022/03/03 03:11:47;;;;;;;27.42;17.55;;;;;;;2.48;49.67;95480.97;4971615;28;20713;-67
2022/03/03 03:14:12;;;;;;;28.83;18.40;;;;;;;2.31;49.58;95462.66;4971873;28;20033;-68
2022/03/03 03:16:38;;;;;;;26.33;17.20;;;;;;;2.47;49.36;95485.44;4971990;28;20027;-67
2022/03/03 03:19:03;;;;;;;34.88;18.58;;;;;;;2.36;49.75;95472.41;4971860;28;20035;-68
2022/03/03 03:21:28;;;;;;;33.72;18.15;;;;;;;2.38;49.40;95486.09;4971729;28;20042;-69
2022/03/03 03:23:55;;;;;;;34.70;18.10;;;;;;;2.03;49.64;95430.25;4953761;28;20403;-69
2022/03/03 03:26:20;;;;;;;31.80;18.55;;;;;;;2.33;49.61;95486.81;4954373;28;20027;-69
2022/03/03 03:28:45;;;;;;;35.15;18.67;;;;;;;2.26;49.99;95471.25;4954056;28;20526;-69
2022/03/03 03:31:11;;;;;;;33.95;17.98;;;;;;;2.29;50.20;95485.72;4971698;28;20034;-69
2022/03/03 03:33:36;;;;;;;28.83;17.75;;;;;;;2.36;50.37;95491.59;4954100;28;20042;-69
2022/03/03 03:36:02;;;;;;;30.27;18.55;;;;;;;2.12;50.13;95463.97;4971648;28;20035;-68
2022/03/03 03:38:28;;;;;;;31.10;17.55;;;;;;;2.14;49.85;95467.13;4970922;28;20066;-69
2022/03/03 03:40:53;;;;;;;27.75;17.25;;;;;;;2.02;50.11;95448.88;4983979;28;20069;-68
2022/03/03 03:43:18;;;;;;;31.08;18.67;;;;;;;2.12;50.27;95462.13;4991001;28;20243;-69
2022/03/03 03:45:44;;;;;;;34.00;19.73;;;;;;;2.26;50.07;95487.00;4973464;28;20137;-69
2022/03/03 03:48:09;;;;;;;29.13;17.33;;;;;;;2.26;49.98;95481.75;4973535;28;20039;-69
2022/03/03 03:50:35;;;;;;;24.33;17.00;;;;;;;1.88;50.03;95421.41;4972742;28;20069;-69
2022/03/03 03:53:00;;;;;;;27.98;17.63;;;;;;;2.29;50.33;95489.13;4979216;28;20463;-68
2022/03/03 03:55:26;;;;;;;34.83;19.33;;;;;;;2.23;50.08;95476.19;4970700;28;20460;-68
2022/03/03 03:57:51;;;;;;;23.85;17.20;;;;;;;2.21;49.74;95473.03;4971437;28;20043;-69
2022/03/03 04:00:16;;;;;;;28.65;17.55;;;;;;;2.23;50.53;95465.69;4971008;28;20041;-69
2022/03/03 04:02:43;;;;;;;25.38;18.02;;;;;;;1.85;50.28;95391.22;4971511;28;20069;-69
2022/03/03 04:05:09;;;;;;;30.25;18.85;;;;;;;2.29;50.45;95467.34;4971425;28;20512;-68
2022/03/03 04:07:34;;;;;;;27.15;17.58;;;;;;;2.25;50.23;95466.22;4971114;28;20023;-68
2022/03/03 04:10:00;;;;;;;25.95;17.27;;;;;;;2.24;50.15;95454.16;4974043;28;20535;-68
2022/03/03 04:12:25;;;;;;;33.58;19.30;;;;;;;2.17;50.07;95438.59;4974833;28;20041;-69
2022/03/03 04:14:54;;;;;;;31.27;18.77;;;;;;;2.12;50.18;95438.53;4974743;28;20027;-69
2022/03/03 04:17:20;;;;;;;30.83;19.10;;;;;;;1.91;50.06;95403.34;4974697;28;20403;-69
2022/03/03 04:19:45;;;;;;;31.73;19.30;;;;;;;2.08;50.27;95437.41;4957272;28;20027;-70
2022/03/03 04:22:11;;;;;;;32.30;18.90;;;;;;;2.01;50.59;95434.19;4956901;28;20560;-69
2022/03/03 04:24:36;;;;;;;25.10;17.50;;;;;;;2.11;50.26;95444.03;4957094;28;20034;-68
2022/03/03 04:27:04;;;;;;;32.85;18.45;;;;;;;2.02;50.13;95428.69;4974715;28;20038;-69
2022/03/03 04:29:29;;;;;;;27.67;18.30;;;;;;;2.20;50.31;95451.22;4974325;28;20038;-71
2022/03/03 04:31:56;;;;;;;30.90;19.90;;;;;;;2.19;50.01;95454.06;4957194;28;20038;-68
2022/03/03 04:34:22;;;;;;;25.10;17.40;;;;;;;1.86;50.20;95405.91;4975396;28;20031;-70
2022/03/03 04:36:47;;;;;;;27.52;18.85;;;;;;;2.20;50.04;95453.03;4975363;28;20109;-68
2022/03/03 04:39:14;;;;;;;33.30;18.45;;;;;;;1.93;50.16;95403.09;4974534;28;20400;-69
2022/03/03 04:41:39;;;;;;;28.38;17.95;;;;;;;2.02;50.26;95423.44;4975180;28;20030;-68
2022/03/03 04:44:05;;;;;;;34.72;20.73;;;;;;;1.78;50.42;95385.34;4974198;28;20042;-69
2022/03/03 04:46:30;;;;;;;29.38;18.27;;;;;;;1.89;50.51;95409.88;4974373;28;20035;-69
2022/03/03 04:48:59;;;;;;;34.00;19.95;;;;;;;2.05;50.64;95443.94;4973953;28;20110;-68
2022/03/03 04:51:28;;;;;;;34.22;19.33;;;;;;;1.79;50.76;95419.22;4956694;28;20022;-67
2022/03/03 04:53:53;;;;;;;25.85;18.00;;;;;;;1.83;51.01;95451.75;4956045;28;20030;-68
2022/03/03 04:56:19;;;;;;;28.92;17.77;;;;;;;1.83;50.95;95441.28;4973851;28;20495;-68
2022/03/03 04:58:45;;;;;;;31.83;17.67;;;;;;;1.86;50.94;95436.59;4956547;28;20027;-68
2022/03/03 05:01:11;;;;;;;26.20;17.08;;;;;;;1.69;51.04;95399.88;4956364;28;20019;-67
2022/03/03 05:03:36;;;;;;;27.63;18.33;;;;;;;1.76;50.55;95405.78;4973895;28;20684;-68
2022/03/03 05:06:02;;;;;;;27.63;18.45;;;;;;;1.76;50.96;95397.91;4974067;28;20065;-68
2022/03/03 05:08:27;;;;;;;28.80;16.52;;;;;;;1.67;50.57;95396.72;4973035;28;20034;-69
2022/03/03 05:10:53;;;;;;;24.33;16.40;;;;;;;1.88;50.47;95456.28;4956148;28;20053;-69
2022/03/03 05:13:18;;;;;;;24.58;16.52;;;;;;;1.78;50.55;95440.41;4973777;28;20046;-69
2022/03/03 05:15:44;;;;;;;34.90;16.90;;;;;;;1.82;50.52;95431.03;4956368;28;20022;-69
2022/03/03 05:18:09;;;;;;;26.27;16.55;;;;;;;1.91;50.50;95453.19;4973703;28;20035;-69
2022/03/03 05:20:35;;;;;;;26.73;16.52;;;;;;;1.69;50.66;95410.38;4973155;28;20034;-68
2022/03/03 05:23:00;;;;;;;25.92;16.15;;;;;;;1.51;50.85;95374.75;4973185;28;20022;-69
2022/03/03 05:25:25;;;;;;;29.42;17.40;;;;;;;1.69;50.40;95403.34;4973582;28;20085;-69
2022/03/03 05:27:51;;;;;;;24.33;16.27;;;;;;;1.84;51.28;95439.44;4973468;28;20082;-68
2022/03/03 05:30:16;;;;;;;37.42;18.17;;;;;;;1.84;50.60;95421.09;4972563;28;20372;-67
2022/03/03 05:32:42;;;;;;;27.60;18.15;;;;;;;1.88;50.39;95427.44;4973391;28;20038;-68
2022/03/03 05:35:08;;;;;;;30.63;17.92;;;;;;;1.90;50.76;95432.47;4955751;28;20018;-70
2022/03/03 05:37:34;;;;;;;33.45;18.52;;;;;;;1.78;50.27;95409.72;4972876;28;20034;-69
2022/03/03 05:40:00;;;;;;;29.55;18.33;;;;;;;1.82;51.07;95423.94;4972865;28;20045;-68
2022/03/03 05:42:26;;;;;;;29.95;19.65;;;;;;;1.80;51.17;95401.66;4972978;28;20460;-68
2022/03/03 05:44:52;;;;;;;30.23;19.10;;;;;;;1.67;50.75;95375.75;4972971;28;20045;-67
2022/03/03 05:47:18;;;;;;;24.50;17.25;;;;;;;1.94;51.01;95408.09;4973085;28;20162;-66
2022/03/03 05:49:44;;;;;;;25.10;16.88;;;;;;;1.95;50.84;95408.94;4955206;28;20030;-66
2022/03/03 05:52:11;;;;;;;27.48;18.02;;;;;;;1.67;50.82;95376.53;4955458;28;20031;-67
2022/03/03 05:54:39;;;;;;;31.38;18.48;;;;;;;1.74;50.69;95381.59;4955041;28;20026;-66
2022/03/03 05:57:17;;;;;;;26.33;16.75;;;;;;;2.03;50.92;95413.72;4972726;28;20034;-67
2022/03/03 05:59:43;;;;;;;28.27;17.23;;;;;;;1.90;50.30;95378.16;4972873;28;20443;-66
2022/03/03 06:02:09;;;;;;;30.45;16.23;;;;;;;1.61;50.62;95345.25;4972467;28;20031;-67
2022/03/03 06:04:38;;;;;;;23.75;16.45;;;;;;;2.05;50.79;95407.22;4972554;28;20054;-67
2022/03/03 06:07:07;;;;;;;28.92;16.88;;;;;;;2.07;50.57;95404.34;4972543;28;20027;-68
2022/03/03 06:09:34;;;;;;;24.45;16.33;;;;;;;2.00;50.86;95394.03;4971896;28;20030;-67
2022/03/03 06:12:15;;;;;;;26.98;18.08;;;;;;;2.22;50.93;95416.88;4972901;28;20059;-63
2022/03/03 06:14:46;;;;;;;24.83;16.63;;;;;;;2.21;50.52;95400.31;4955081;28;20344;-63
2022/03/03 06:17:13;;;;;;;30.52;17.52;;;;;;;2.15;50.67;95385.56;4972343;28;20141;-65
2022/03/03 06:19:41;;;;;;;34.58;18.38;;;;;;;2.21;50.52;95381.16;4972051;28;20066;-65
2022/03/03 06:22:10;;;;;;;31.88;18.05;;;;;;;2.44;50.21;95409.75;4972368;28;20379;-66
2022/03/03 06:24:36;;;;;;;26.95;17.52;;;;;;;2.34;50.50;95389.44;4971833;28;20464;-64
2022/03/03 06:27:02;;;;;;;28.65;17.75;;;;;;;2.56;49.99;95415.69;4954794;28;20031;-65
2022/03/03 06:29:27;;;;;;;29.88;18.00;;;;;;;2.51;50.69;95410.38;4954431;28;20480;-73
2022/03/03 06:31:53;;;;;;;30.63;18.42;;;;;;;2.79;50.54;95416.44;4953810;28;20033;-67
2022/03/03 06:34:20;;;;;;;29.08;18.23;;;;;;;2.74;49.90;95390.91;4954470;28;20086;-67
2022/03/03 06:36:46;;;;;;;29.98;17.05;;;;;;;2.58;49.88;95374.22;4971765;28;20041;-68
2022/03/03 06:39:11;;;;;;;23.98;16.33;;;;;;;2.86;49.73;95374.97;4970841;28;20039;-65
2022/03/03 06:41:37;;;;;;;22.65;17.63;;;;;;;3.08;49.76;95385.44;4971531;28;20026;-65
2022/03/03 06:44:02;;;;;;;23.90;16.60;;;;;;;3.22;49.69;95381.34;4971564;28;20090;-66
2022/03/03 06:46:28;;;;;;;24.10;16.73;;;;;;;3.12;49.44;95345.28;4971840;28;20027;-66
2022/03/03 06:48:54;;;;;;;24.00;16.60;;;;;;;3.24;49.14;95352.19;4971557;28;20559;-64
2022/03/03 06:51:22;;;;;;;26.80;16.38;;;;;;;3.42;49.23;95377.28;4971578;28;20499;-68
2022/03/03 06:53:53;;;;;;;23.10;16.63;;;;;;;3.57;49.09;95375.53;4953980;28;20082;-65
2022/03/03 06:56:23;;;;;;;34.38;18.25;;;;;;;3.73;48.69;95362.47;4979770;28;20340;-65
2022/03/03 06:58:50;;;;;;;30.73;17.92;;;;;;;3.68;49.02;95365.88;4990962;28;20146;-65
2022/03/03 07:01:17;;;;;;;27.85;18.13;;;;;;;3.54;48.63;95330.56;4990905;28;20062;-63
2022/03/03 07:03:44;;;;;;;26.15;18.45;;;;;;;3.83;48.98;95381.72;4991248;28;20030;-64
2022/03/03 07:06:10;;;;;;;28.05;17.00;;;;;;;3.69;48.81;95366.69;4991321;28;20077;-63
2022/03/03 07:08:36;;;;;;;30.35;18.38;;;;;;;3.61;48.73;95323.22;4965605;28;20039;-66
2022/03/03 07:11:01;;;;;;;26.83;18.13;;;;;;;3.83;48.32;95341.47;4953916;28;20033;-63
2022/03/03 07:13:27;;;;;;;24.60;17.80;;;;;;;4.03;48.71;95352.09;4971684;28;20026;-63
2022/03/03 07:15:55;;;;;;;30.58;17.92;;;;;;;4.20;48.88;95362.44;4971826;28;20035;-66
2022/03/03 07:18:32;;;;;;;25.00;17.50;;;;;;;4.26;48.13;95371.16;4954278;28;20670;-67
2022/03/03 07:21:37;;;;;;;36.97;18.80;;;;;;;4.41;48.62;95371.22;4954165;28;20042;-64
2022/03/03 07:24:12;;;;;;;30.55;18.23;;;;;;;4.45;48.37;95353.81;4966162;28;20384;-66
2022/03/03 07:26:37;;;;;;;28.38;17.92;;;;;;;4.49;48.32;95328.53;4953551;28;20052;-65
2022/03/03 07:29:07;;;;;;;30.17;19.98;;;;;;;4.75;48.20;95355.72;4971101;28;20532;-66
2022/03/03 07:31:40;;;;;;;26.65;18.70;;;;;;;4.81;47.99;95338.06;4971189;28;20035;-65
2022/03/03 07:34:08;;;;;;;29.23;18.45;;;;;;;4.98;47.82;95346.53;4954162;28;20035;-66
2022/03/03 07:36:40;;;;;;;25.50;17.25;;;;;;;5.00;47.99;95330.44;4954198;28;20030;-65
2022/03/03 07:39:10;;;;;;;26.30;16.30;;;;;;;5.23;47.50;95348.38;4970793;28;20254;-62
2022/03/03 07:41:35;;;;;;;24.80;16.55;;;;;;;5.23;47.51;95319.38;4971167;28;20030;-65
2022/03/03 07:44:02;;;;;;;22.00;15.13;;;;;;;5.48;47.38;95343.09;4974866;28;20023;-66
2022/03/03 07:46:27;;;;;;;22.35;15.10;;;;;;;5.62;47.00;95335.38;4957643;28;20031;-66
2022/03/03 07:48:53;;;;;;;21.38;14.27;;;;;;;5.61;46.63;95302.16;4957172;28;20031;-66
2022/03/03 07:51:23;;;;;;;17.00;14.35;;;;;;;5.84;46.48;95326.38;4975037;28;20383;-66
2022/03/03 07:53:49;;;;;;;18.13;13.82;;;;;;;6.10;46.42;95335.81;4953481;28;20038;-66
2022/03/03 07:56:25;;;;;;;18.88;13.75;;;;;;;6.18;45.81;95324.69;4957515;28;20031;-65
2022/03/03 07:58:57;;;;;;;18.50;13.02;;;;;;;6.42;45.82;95329.34;4957476;28;20023;-66
2022/03/03 08:01:24;;;;;;;15.65;11.90;;;;;;;6.44;44.84;95313.97;4957558;28;20027;-67
2022/03/03 08:03:51;;;;;;;14.65;10.63;;;;;;;6.27;44.25;95332.84;4956942;28;20023;-66
2022/03/03 08:06:17;;;;;;;12.50;9.80;;;;;;;6.32;44.46;95318.81;4974897;28;20018;-66
2022/03/03 08:08:44;;;;;;;12.07;10.88;;;;;;;6.90;43.84;95337.50;4956593;28;20536;-67
2022/03/03 08:11:10;;;;;;;11.43;9.35;;;;;;;6.96;43.24;95333.72;4957248;28;20443;-67
2022/03/03 08:13:36;;;;;;;13.77;10.20;;;;;;;7.18;43.03;95349.19;4975288;28;20106;-67
2022/03/03 08:16:03;;;;;;;17.70;10.10;;;;;;;6.92;42.17;95373.19;4974952;28;20023;-67
2022/03/03 08:18:32;;;;;;;18.15;11.68;;;;;;;6.39;42.84;95337.78;4974652;28;20082;-66
2022/03/03 08:21:01;;;;;;;17.67;10.82;;;;;;;5.99;43.96;95336.94;4974557;28;20033;-67
2022/03/03 08:23:26;;;;;;;15.63;11.70;;;;;;;6.98;42.39;95355.44;4974040;28;20027;-67
2022/03/03 08:25:54;;;;;;;19.90;12.02;;;;;;;7.08;41.84;95365.94;4978630;28;20084;-67
2022/03/03 08:28:23;;;;;;;23.88;13.05;;;;;;;6.99;42.59;95351.72;4993473;28;20022;-67
2022/03/03 08:30:52;;;;;;;20.08;12.93;;;;;;;7.19;42.00;95356.84;4993382;28;20058;-66
2022/03/03 08:33:31;;;;;;;13.07;11.57;;;;;;;7.07;41.55;95351.13;4993694;28;20069;-67
2022/03/03 08:36:00;;;;;;;17.27;11.00;;;;;;;6.47;42.83;95347.81;4993427;28;20089;-67
2022/03/03 08:38:34;;;;;;;16.92;10.77;;;;;;;7.16;42.01;95352.09;4972349;28;20035;-67
2022/03/03 08:41:02;;;;;;;14.43;11.65;;;;;;;7.89;41.72;95337.94;4956360;28;20034;-68
2022/03/03 08:43:30;;;;;;;21.17;12.43;;;;;;;8.23;40.51;95342.31;4956465;28;20728;-67
2022/03/03 08:46:05;;;;;;;18.35;12.55;;;;;;;8.51;40.66;95345.97;4974244;28;20030;-66
2022/03/03 08:48:32;;;;;;;19.38;12.05;;;;;;;8.57;39.88;95332.38;4956924;28;20117;-66
2022/03/03 08:51:02;;;;;;;20.25;12.95;;;;;;;8.22;39.26;95328.28;4956545;28;20031;-67
2022/03/03 08:53:28;;;;;;;17.13;11.93;;;;;;;8.81;39.38;95342.91;4973306;28;20023;-66
2022/03/03 08:55:54;;;;;;;18.55;11.82;;;;;;;9.04;39.20;95338.59;4956083;28;20029;-65
2022/03/03 08:58:22;;;;;;;16.35;11.25;;;;;;;9.05;39.01;95347.34;4973852;28;20070;-68
2022/03/03 09:00:48;;;;;;;16.10;11.15;;;;;;;7.39;40.26;95318.84;4956574;28;20035;-67
2022/03/03 09:03:15;;;;;;;19.77;10.90;;;;;;;8.09;39.34;95321.03;4973771;28;20050;-68
2022/03/03 09:05:41;;;;;;;21.02;11.18;;;;;;;8.13;39.51;95322.03;4956656;28;20033;-66
2022/03/03 09:08:07;;;;;;;32.10;11.25;;;;;;;8.20;39.69;95306.59;4973423;28;20023;-67
2022/03/03 09:10:33;;;;;;;20.63;12.15;;;;;;;8.65;39.23;95323.00;4955252;28;20089;-67
2022/03/03 09:13:00;;;;;;;16.70;10.52;;;;;;;7.72;39.73;95289.91;4956344;28;20471;-68
2022/03/03 09:15:30;;;;;;;17.48;11.10;;;;;;;7.99;38.88;95292.00;4973519;28;20033;-68
2022/03/03 09:17:56;;;;;;;18.20;11.43;;;;;;;8.57;38.22;95311.16;4956198;28;20084;-67
2022/03/03 09:20:21;;;;;;;15.00;10.68;;;;;;;9.03;37.81;95310.47;4973061;28;20027;-66
2022/03/03 09:22:46;;;;;;;12.15;9.57;;;;;;;9.16;37.55;95303.63;4973372;28;20027;-67
2022/03/03 09:25:13;;;;;;;17.30;10.80;;;;;;;9.11;37.03;95304.53;4972987;28;20421;-67
2022/03/03 09:27:39;;;;;;;15.63;11.35;;;;;;;8.51;38.61;95295.63;4955712;28;20077;-68
2022/03/03 09:30:06;;;;;;;19.20;10.93;;;;;;;8.26;38.47;95278.94;4973282;28;20035;-68
2022/03/03 09:32:31;;;;;;;12.48;10.68;;;;;;;8.47;38.66;95299.91;4955548;28;20423;-68
2022/03/03 09:34:57;;;;;;;15.93;10.48;;;;;;;9.02;37.35;95279.72;4973428;28;20109;-67
2022/03/03 09:37:22;;;;;;;16.15;10.32;;;;;;;9.36;36.80;95292.69;4973290;28;20031;-67
2022/03/03 09:39:49;;;;;;;15.50;11.68;;;;;;;9.16;36.91;95300.97;4955273;28;20034;-67
2022/03/03 09:42:15;;;;;;;15.63;10.80;;;;;;;8.68;37.06;95306.50;4955315;28;20027;-68
2022/03/03 09:44:40;;;;;;;16.20;12.13;;;;;;;8.67;37.52;95289.00;4955554;28;20022;-67
2022/03/03 09:47:05;;;;;;;20.30;11.93;;;;;;;8.37;36.68;95308.78;4955848;28;20023;-68
2022/03/03 09:49:31;;;;;;;18.05;11.75;;;;;;;9.20;36.33;95288.72;4955352;28;20472;-67
2022/03/03 09:51:57;;;;;;;20.77;12.77;;;;;;;7.92;38.18;95292.34;4972849;28;20621;-69
2022/03/03 09:54:23;;;;;;;24.48;13.88;;;;;;;8.66;37.71;95313.19;4954937;28;20027;-68
2022/03/03 09:56:48;;;;;;;25.42;15.23;;;;;;;8.71;37.13;95266.16;4980688;28;20062;-67
2022/03/03 09:59:14;;;;;;;20.63;13.98;;;;;;;8.57;35.95;95297.91;4971126;28;20074;-69
2022/03/03 10:01:40;;;;;;;18.20;14.00;;;;;;;8.23;36.52;95250.34;4972641;28;20041;-69
2022/03/03 10:04:21;;;;;;;16.25;13.65;;;;;;;8.68;37.15;95316.31;4972857;28;20026;-69
2022/03/03 10:06:47;;;;;;;18.50;15.48;;;;;;;9.30;36.04;95287.75;4972029;28;20038;-68
2022/03/03 10:09:14;;;;;;;14.88;13.25;;;;;;;8.42;36.47;95307.94;4972752;28;20034;-67
2022/03/03 10:12:04;;;;;;;20.90;14.93;;;;;;;8.13;37.19;95314.06;4966493;28;20042;-69
2022/03/03 10:14:32;;;;;;;27.90;15.90;;;;;;;8.67;37.06;95294.31;4992628;28;20088;-69
2022/03/03 10:16:58;;;;;;;22.42;15.48;;;;;;;9.21;36.52;95308.06;4992499;28;20032;-68
2022/03/03 10:19:23;;;;;;;27.45;15.15;;;;;;;9.29;36.82;95300.25;4992349;28;20459;-68
2022/03/03 10:21:49;;;;;;;26.95;17.25;;;;;;;9.15;36.17;95304.72;4992307;28;20080;-68
2022/03/03 10:24:21;;;;;;;22.30;15.20;;;;;;;8.39;38.62;95313.78;4986673;28;20034;-69
2022/03/03 10:26:56;;;;;;;22.27;15.63;;;;;;;9.76;36.57;95271.00;4972576;28;20472;-69
2022/03/03 10:29:22;;;;;;;25.92;16.15;;;;;;;9.46;37.17;95297.03;4971954;28;20097;-69
2022/03/03 10:31:50;;;;;;;22.77;16.85;;;;;;;9.79;36.09;95286.34;4971689;28;20065;-68
2022/03/03 10:34:20;;;;;;;22.02;15.48;;;;;;;9.83;35.71;95266.09;4968662;23;20027;-72
2022/03/03 10:37:06;;;;;;;18.65;14.98;;;;;;;10.22;34.52;95292.13;4990422;28;20548;-71
2022/03/03 10:39:41;;;;;;;26.77;15.80;;;;;;;9.68;34.55;95296.38;4991149;28;20034;-72
2022/03/03 10:42:19;;;;;;;14.25;11.68;;;;;;;10.05;32.00;95297.28;4985578;28;20021;-72
2022/03/03 10:44:45;;;;;;;19.55;14.20;;;;;;;10.26;31.54;95279.84;4972101;28;20459;-71
2022/03/03 10:47:13;;;;;;;14.90;13.23;;;;;;;9.91;32.07;95291.97;4971853;28;20027;-71
2022/03/03 10:49:41;;;;;;;17.08;13.38;;;;;;;9.04;32.73;95290.81;4970291;28;20031;-71
2022/03/03 10:52:16;;;;;;;20.00;14.38;;;;;;;9.70;32.65;95291.56;4971877;28;20019;-72
2022/03/03 10:55:03;;;;;;;21.30;13.27;;;;;;;10.39;31.24;95270.28;4971963;28;20030;-70
2022/03/03 10:57:46;;;;;;;15.68;13.57;;;;;;;9.94;30.83;95277.31;4971853;28;20031;-72
2022/03/03 11:00:15;;;;;;;17.70;10.30;;;;;;;9.93;27.21;95255.28;4970435;28;20051;-70
2022/03/03 11:02:49;;;;;;;13.07;9.60;;;;;;;10.76;27.83;95261.22;4971775;28;20109;-71
2022/03/03 11:05:16;;;;;;;16.15;11.90;;;;;;;11.08;27.88;95251.41;4968517;28;20361;-70
2022/03/03 11:07:44;;;;;;;14.35;12.95;;;;;;;11.02;28.52;95261.41;4972246;28;20047;-71
2022/03/03 11:10:18;;;;;;;17.98;13.85;;;;;;;11.09;29.18;95250.31;4971622;28;20043;-71
2022/03/03 11:12:44;;;;;;;20.27;12.38;;;;;;;10.65;29.36;95243.91;4983344;28;20026;-74
2022/03/03 11:15:11;;;;;;;15.52;12.85;;;;;;;10.71;28.91;95255.22;4991158;28;20102;-70
2022/03/03 11:17:37;;;;;;;23.55;13.13;;;;;;;10.11;30.66;95251.69;4991568;28;20566;-70
2022/03/03 11:20:05;;;;;;;15.27;13.50;;;;;;;10.22;30.69;95246.94;4995325;28;20102;-70
2022/03/03 11:22:31;;;;;;;15.52;12.43;;;;;;;10.50;29.71;95249.59;4995034;28;20031;-70
2022/03/03 11:25:00;;;;;;;18.17;13.85;;;;;;;10.47;30.17;95210.28;4986071;28;20015;-71
2022/03/03 11:27:41;;;;;;;22.33;13.95;;;;;;;11.26;29.17;95238.97;4975561;28;20111;-72